sensor_id;sensor_type;location;lat;lon;timestamp;P1;durP1;ratioP1;P2;durP2;ratioP2
5569;SDS011;2808;51.240;6.794;2022-11-15T00:00:03;12.83;;;6.93;;
5569;SDS011;2808;51.240;6.794;2022-11-15T00:02:31;12.57;;;7.03;;
5569;SDS011;2808;51.240;6.794;2022-11-15T00:04:58;11.93;;;6.50;;
5569;SDS011;2808;51.240;6.794;2022-11-15T00:07:26;15.30;;;6.60;;
5569;SDS011;2808;51.240;6.794;2022-11-15T00:09:53;12.60;;;6.73;;
5569;SDS011;2808;51.240;6.794;2022-11-15T00:12:22;11.83;;;6.93;;
5569;SDS011;2808;51.240;6.794;2022-11-15T00:14:49;14.10;;;7.20;;
5569;SDS011;2808;51.240;6.794;2022-11-15T00:17:17;12.37;;;7.03;;
5569;SDS011;2808;51.240;6.794;2022-11-15T00:19:44;13.07;;;7.63;;
5569;SDS011;2808;51.240;6.794;2022-11-15T00:22:12;15.87;;;7.30;;
5569;SDS011;2808;51.240;6.794;2022-11-15T00:24:39;16.10;;;7.57;;
5569;SDS011;2808;51.240;6.794;2022-11-15T00:27:07;15.47;;;7.60;;
5569;SDS011;2808;51.240;6.794;2022-11-15T00:29:36;14.30;;;7.53;;
5569;SDS011;2808;51.240;6.794;2022-11-15T00:32:08;15.07;;;7.80;;
5569;SDS011;2808;51.240;6.794;2022-11-15T00:34:35;13.07;;;6.97;;
5569;SDS011;2808;51.240;6.794;2022-11-15T00:37:03;13.97;;;7.30;;
5569;SDS011;2808;51.240;6.794;2022-11-15T00:39:31;13.70;;;8.03;;
5569;SDS011;2808;51.240;6.794;2022-11-15T00:41:59;14.30;;;7.00;;
5569;SDS011;2808;51.240;6.794;2022-11-15T00:44:26;18.67;;;7.80;;
5569;SDS011;2808;51.240;6.794;2022-11-15T00:46:55;13.67;;;8.00;;
5569;SDS011;2808;51.240;6.794;2022-11-15T00:49:23;15.10;;;7.07;;
5569;SDS011;2808;51.240;6.794;2022-11-15T00:51:50;17.03;;;8.20;;
5569;SDS011;2808;51.240;6.794;2022-11-15T00:54:17;14.90;;;7.70;;
5569;SDS011;2808;51.240;6.794;2022-11-15T00:56:45;16.60;;;7.87;;
5569;SDS011;2808;51.240;6.794;2022-11-15T00:59:12;16.00;;;7.13;;
5569;SDS011;2808;51.240;6.794;2022-11-15T01:01:40;11.53;;;6.73;;
5569;SDS011;2808;51.240;6.794;2022-11-15T01:04:09;13.70;;;7.50;;
5569;SDS011;2808;51.240;6.794;2022-11-15T01:06:36;17.53;;;8.07;;
5569;SDS011;2808;51.240;6.794;2022-11-15T01:09:06;16.23;;;8.30;;
5569;SDS011;2808;51.240;6.794;2022-11-15T01:11:36;13.13;;;7.37;;
5569;SDS011;2808;51.240;6.794;2022-11-15T01:14:03;13.97;;;7.27;;
5569;SDS011;2808;51.240;6.794;2022-11-15T01:16:30;14.70;;;7.80;;
5569;SDS011;2808;51.240;6.794;2022-11-15T01:18:58;15.33;;;7.43;;
5569;SDS011;2808;51.240;6.794;2022-11-15T01:21:27;11.80;;;7.20;;
5569;SDS011;2808;51.240;6.794;2022-11-15T01:23:54;13.60;;;7.07;;
5569;SDS011;2808;51.240;6.794;2022-11-15T01:26:23;15.73;;;8.47;;
5569;SDS011;2808;51.240;6.794;2022-11-15T01:28:51;19.40;;;8.17;;
5569;SDS011;2808;51.240;6.794;2022-11-15T01:31:20;19.50;;;7.53;;
5569;SDS011;2808;51.240;6.794;2022-11-15T01:33:47;14.40;;;6.97;;
5569;SDS011;2808;51.240;6.794;2022-11-15T01:36:16;15.17;;;6.70;;
5569;SDS011;2808;51.240;6.794;2022-11-15T01:38:48;13.30;;;6.93;;
5569;SDS011;2808;51.240;6.794;2022-11-15T01:41:20;15.67;;;7.70;;
5569;SDS011;2808;51.240;6.794;2022-11-15T01:43:51;14.10;;;6.90;;
5569;SDS011;2808;51.240;6.794;2022-11-15T01:46:23;12.97;;;7.03;;
5569;SDS011;2808;51.240;6.794;2022-11-15T01:48:54;16.07;;;7.57;;
5569;SDS011;2808;51.240;6.794;2022-11-15T01:51:26;15.40;;;7.60;;
5569;SDS011;2808;51.240;6.794;2022-11-15T01:54:04;19.57;;;8.30;;
5569;SDS011;2808;51.240;6.794;2022-11-15T01:56:36;14.93;;;8.40;;
5569;SDS011;2808;51.240;6.794;2022-11-15T01:59:08;14.93;;;8.90;;
5569;SDS011;2808;51.240;6.794;2022-11-15T02:01:36;15.17;;;8.10;;
5569;SDS011;2808;51.240;6.794;2022-11-15T02:04:05;15.00;;;8.10;;
5569;SDS011;2808;51.240;6.794;2022-11-15T02:06:38;14.03;;;6.80;;
5569;SDS011;2808;51.240;6.794;2022-11-15T02:09:08;15.67;;;6.53;;
5569;SDS011;2808;51.240;6.794;2022-11-15T02:11:36;17.60;;;6.97;;
5569;SDS011;2808;51.240;6.794;2022-11-15T02:14:04;18.57;;;7.50;;
5569;SDS011;2808;51.240;6.794;2022-11-15T02:16:34;16.53;;;7.13;;
5569;SDS011;2808;51.240;6.794;2022-11-15T02:19:13;17.50;;;7.97;;
5569;SDS011;2808;51.240;6.794;2022-11-15T02:22:04;16.07;;;7.90;;
5569;SDS011;2808;51.240;6.794;2022-11-15T02:31:06;14.83;;;6.60;;
5569;SDS011;2808;51.240;6.794;2022-11-15T02:33:41;16.13;;;8.33;;
5569;SDS011;2808;51.240;6.794;2022-11-15T02:36:18;17.30;;;7.53;;
5569;SDS011;2808;51.240;6.794;2022-11-15T02:38:58;13.20;;;7.40;;
5569;SDS011;2808;51.240;6.794;2022-11-15T02:41:35;13.90;;;7.60;;
5569;SDS011;2808;51.240;6.794;2022-11-15T02:44:07;11.83;;;6.50;;
5569;SDS011;2808;51.240;6.794;2022-11-15T02:46:43;14.10;;;8.13;;
5569;SDS011;2808;51.240;6.794;2022-11-15T02:49:32;15.00;;;8.10;;
5569;SDS011;2808;51.240;6.794;2022-11-15T02:52:00;13.27;;;7.17;;
5569;SDS011;2808;51.240;6.794;2022-11-15T02:54:31;16.43;;;7.30;;
5569;SDS011;2808;51.240;6.794;2022-11-15T02:57:00;18.50;;;8.40;;
5569;SDS011;2808;51.240;6.794;2022-11-15T03:02:35;13.67;;;7.40;;
5569;SDS011;2808;51.240;6.794;2022-11-15T03:05:15;15.20;;;8.07;;
5569;SDS011;2808;51.240;6.794;2022-11-15T03:07:51;19.20;;;7.63;;
5569;SDS011;2808;51.240;6.794;2022-11-15T03:10:26;14.83;;;7.27;;
5569;SDS011;2808;51.240;6.794;2022-11-15T03:12:59;14.43;;;6.90;;
5569;SDS011;2808;51.240;6.794;2022-11-15T03:15:37;12.07;;;7.43;;
5569;SDS011;2808;51.240;6.794;2022-11-15T03:18:10;16.00;;;8.40;;
5569;SDS011;2808;51.240;6.794;2022-11-15T03:20:44;11.80;;;7.50;;
5569;SDS011;2808;51.240;6.794;2022-11-15T03:23:12;15.37;;;7.57;;
5569;SDS011;2808;51.240;6.794;2022-11-15T03:25:41;12.07;;;7.33;;
5569;SDS011;2808;51.240;6.794;2022-11-15T03:28:13;11.90;;;7.33;;
5569;SDS011;2808;51.240;6.794;2022-11-15T03:30:46;14.83;;;7.40;;
5569;SDS011;2808;51.240;6.794;2022-11-15T03:33:17;14.70;;;6.50;;
5569;SDS011;2808;51.240;6.794;2022-11-15T03:35:47;19.97;;;8.20;;
5569;SDS011;2808;51.240;6.794;2022-11-15T03:38:17;11.97;;;6.70;;
5569;SDS011;2808;51.240;6.794;2022-11-15T03:40:51;14.20;;;7.63;;
5569;SDS011;2808;51.240;6.794;2022-11-15T03:43:27;15.67;;;8.60;;
5569;SDS011;2808;51.240;6.794;2022-11-15T03:46:00;10.97;;;6.63;;
5569;SDS011;2808;51.240;6.794;2022-11-15T03:48:35;12.53;;;6.70;;
5569;SDS011;2808;51.240;6.794;2022-11-15T03:51:06;12.37;;;6.67;;
5569;SDS011;2808;51.240;6.794;2022-11-15T03:53:34;13.23;;;7.03;;
5569;SDS011;2808;51.240;6.794;2022-11-15T03:56:02;16.23;;;7.30;;
5569;SDS011;2808;51.240;6.794;2022-11-15T03:58:29;15.30;;;7.40;;
5569;SDS011;2808;51.240;6.794;2022-11-15T04:00:57;14.83;;;6.33;;
5569;SDS011;2808;51.240;6.794;2022-11-15T04:03:25;12.07;;;6.47;;
5569;SDS011;2808;51.240;6.794;2022-11-15T04:05:54;10.33;;;6.17;;
5569;SDS011;2808;51.240;6.794;2022-11-15T04:08:21;12.90;;;6.60;;
5569;SDS011;2808;51.240;6.794;2022-11-15T04:10:51;14.10;;;7.47;;
5569;SDS011;2808;51.240;6.794;2022-11-15T04:13:18;14.27;;;7.30;;
5569;SDS011;2808;51.240;6.794;2022-11-15T04:15:49;12.03;;;7.00;;
5569;SDS011;2808;51.240;6.794;2022-11-15T04:18:17;14.70;;;7.03;;
5569;SDS011;2808;51.240;6.794;2022-11-15T04:20:45;17.47;;;7.00;;
5569;SDS011;2808;51.240;6.794;2022-11-15T04:23:31;10.53;;;6.50;;
5569;SDS011;2808;51.240;6.794;2022-11-15T04:26:16;14.57;;;7.10;;
5569;SDS011;2808;51.240;6.794;2022-11-15T04:28:46;13.13;;;5.63;;
5569;SDS011;2808;51.240;6.794;2022-11-15T04:31:28;12.63;;;6.23;;
5569;SDS011;2808;51.240;6.794;2022-11-15T04:33:55;13.07;;;6.47;;
5569;SDS011;2808;51.240;6.794;2022-11-15T04:36:23;10.80;;;5.80;;
5569;SDS011;2808;51.240;6.794;2022-11-15T04:39:09;10.00;;;5.70;;
5569;SDS011;2808;51.240;6.794;2022-11-15T04:41:37;12.13;;;6.17;;
5569;SDS011;2808;51.240;6.794;2022-11-15T04:44:04;10.30;;;6.20;;
5569;SDS011;2808;51.240;6.794;2022-11-15T04:46:39;13.07;;;5.80;;
5569;SDS011;2808;51.240;6.794;2022-11-15T04:49:06;13.00;;;5.93;;
5569;SDS011;2808;51.240;6.794;2022-11-15T04:51:34;11.80;;;5.83;;
5569;SDS011;2808;51.240;6.794;2022-11-15T04:54:01;10.80;;;6.00;;
5569;SDS011;2808;51.240;6.794;2022-11-15T04:56:30;12.23;;;5.70;;
5569;SDS011;2808;51.240;6.794;2022-11-15T04:58:57;11.57;;;6.70;;
5569;SDS011;2808;51.240;6.794;2022-11-15T05:01:25;10.60;;;6.20;;
5569;SDS011;2808;51.240;6.794;2022-11-15T05:03:52;18.83;;;6.40;;
5569;SDS011;2808;51.240;6.794;2022-11-15T05:06:38;16.80;;;7.63;;
5569;SDS011;2808;51.240;6.794;2022-11-15T05:09:05;17.23;;;7.27;;
5569;SDS011;2808;51.240;6.794;2022-11-15T05:11:34;14.03;;;7.33;;
5569;SDS011;2808;51.240;6.794;2022-11-15T05:14:02;17.30;;;7.50;;
5569;SDS011;2808;51.240;6.794;2022-11-15T05:16:30;12.30;;;6.90;;
5569;SDS011;2808;51.240;6.794;2022-11-15T05:18:57;17.03;;;8.93;;
5569;SDS011;2808;51.240;6.794;2022-11-15T05:21:24;12.27;;;7.73;;
5569;SDS011;2808;51.240;6.794;2022-11-15T05:23:52;16.83;;;8.90;;
5569;SDS011;2808;51.240;6.794;2022-11-15T05:26:19;22.30;;;10.13;;
5569;SDS011;2808;51.240;6.794;2022-11-15T05:28:53;18.37;;;9.93;;
5569;SDS011;2808;51.240;6.794;2022-11-15T05:31:21;13.57;;;7.53;;
5569;SDS011;2808;51.240;6.794;2022-11-15T05:33:49;19.30;;;7.97;;
5569;SDS011;2808;51.240;6.794;2022-11-15T05:36:18;16.90;;;6.97;;
5569;SDS011;2808;51.240;6.794;2022-11-15T05:38:52;15.97;;;7.27;;
5569;SDS011;2808;51.240;6.794;2022-11-15T05:41:20;12.63;;;7.07;;
5569;SDS011;2808;51.240;6.794;2022-11-15T05:43:56;14.77;;;7.40;;
5569;SDS011;2808;51.240;6.794;2022-11-15T05:46:24;12.27;;;7.30;;
5569;SDS011;2808;51.240;6.794;2022-11-15T05:48:52;10.93;;;6.97;;
5569;SDS011;2808;51.240;6.794;2022-11-15T05:51:21;11.97;;;7.00;;
5569;SDS011;2808;51.240;6.794;2022-11-15T05:53:53;12.23;;;7.57;;
5569;SDS011;2808;51.240;6.794;2022-11-15T05:56:24;11.03;;;7.00;;
5569;SDS011;2808;51.240;6.794;2022-11-15T05:58:52;12.60;;;7.20;;
5569;SDS011;2808;51.240;6.794;2022-11-15T06:01:23;11.13;;;6.60;;
5569;SDS011;2808;51.240;6.794;2022-11-15T06:03:52;12.10;;;6.50;;
5569;SDS011;2808;51.240;6.794;2022-11-15T06:06:19;14.27;;;6.60;;
5569;SDS011;2808;51.240;6.794;2022-11-15T06:08:47;13.80;;;7.33;;
5569;SDS011;2808;51.240;6.794;2022-11-15T06:11:14;10.00;;;6.37;;
5569;SDS011;2808;51.240;6.794;2022-11-15T06:13:42;11.97;;;6.20;;
5569;SDS011;2808;51.240;6.794;2022-11-15T06:16:09;8.90;;;6.10;;
5569;SDS011;2808;51.240;6.794;2022-11-15T06:18:38;10.43;;;6.37;;
5569;SDS011;2808;51.240;6.794;2022-11-15T06:21:05;8.50;;;5.53;;
5569;SDS011;2808;51.240;6.794;2022-11-15T06:23:33;9.90;;;6.43;;
5569;SDS011;2808;51.240;6.794;2022-11-15T06:26:02;11.57;;;6.20;;
5569;SDS011;2808;51.240;6.794;2022-11-15T06:28:32;9.20;;;5.73;;
5569;SDS011;2808;51.240;6.794;2022-11-15T06:31:02;9.83;;;6.37;;
5569;SDS011;2808;51.240;6.794;2022-11-15T06:33:29;9.77;;;5.53;;
5569;SDS011;2808;51.240;6.794;2022-11-15T06:36:01;12.47;;;6.23;;
5569;SDS011;2808;51.240;6.794;2022-11-15T06:38:28;9.63;;;5.20;;
5569;SDS011;2808;51.240;6.794;2022-11-15T06:41:07;6.87;;;4.60;;
5569;SDS011;2808;51.240;6.794;2022-11-15T06:43:36;7.80;;;4.70;;
5569;SDS011;2808;51.240;6.794;2022-11-15T06:46:04;6.90;;;4.67;;
5569;SDS011;2808;51.240;6.794;2022-11-15T06:48:33;9.90;;;4.40;;
5569;SDS011;2808;51.240;6.794;2022-11-15T06:51:03;11.77;;;4.87;;
5569;SDS011;2808;51.240;6.794;2022-11-15T06:53:31;9.80;;;4.60;;
5569;SDS011;2808;51.240;6.794;2022-11-15T06:56:00;7.67;;;4.50;;
5569;SDS011;2808;51.240;6.794;2022-11-15T06:58:28;9.23;;;4.80;;
5569;SDS011;2808;51.240;6.794;2022-11-15T07:00:58;6.83;;;4.20;;
5569;SDS011;2808;51.240;6.794;2022-11-15T07:03:26;7.80;;;4.57;;
5569;SDS011;2808;51.240;6.794;2022-11-15T07:05:54;8.30;;;4.50;;
5569;SDS011;2808;51.240;6.794;2022-11-15T07:08:29;10.43;;;4.80;;
5569;SDS011;2808;51.240;6.794;2022-11-15T07:10:57;7.87;;;4.17;;
5569;SDS011;2808;51.240;6.794;2022-11-15T07:13:27;9.00;;;4.00;;
5569;SDS011;2808;51.240;6.794;2022-11-15T07:15:57;7.10;;;4.00;;
5569;SDS011;2808;51.240;6.794;2022-11-15T07:18:27;7.13;;;3.90;;
5569;SDS011;2808;51.240;6.794;2022-11-15T07:20:55;10.60;;;4.17;;
5569;SDS011;2808;51.240;6.794;2022-11-15T07:23:26;7.40;;;3.80;;
5569;SDS011;2808;51.240;6.794;2022-11-15T07:25:56;9.33;;;4.30;;
5569;SDS011;2808;51.240;6.794;2022-11-15T07:28:24;8.13;;;3.67;;
5569;SDS011;2808;51.240;6.794;2022-11-15T07:30:52;7.53;;;4.10;;
5569;SDS011;2808;51.240;6.794;2022-11-15T07:33:19;9.03;;;4.07;;
5569;SDS011;2808;51.240;6.794;2022-11-15T07:35:47;7.67;;;3.80;;
5569;SDS011;2808;51.240;6.794;2022-11-15T07:38:14;7.53;;;3.90;;
5569;SDS011;2808;51.240;6.794;2022-11-15T07:40:47;14.93;;;4.20;;
5569;SDS011;2808;51.240;6.794;2022-11-15T07:43:21;8.13;;;3.90;;
5569;SDS011;2808;51.240;6.794;2022-11-15T07:45:52;7.60;;;3.70;;
5569;SDS011;2808;51.240;6.794;2022-11-15T07:48:20;8.70;;;4.50;;
5569;SDS011;2808;51.240;6.794;2022-11-15T07:50:48;8.60;;;3.30;;
5569;SDS011;2808;51.240;6.794;2022-11-15T07:53:15;9.63;;;3.73;;
5569;SDS011;2808;51.240;6.794;2022-11-15T07:55:43;9.60;;;3.47;;
5569;SDS011;2808;51.240;6.794;2022-11-15T07:58:12;9.93;;;3.63;;
5569;SDS011;2808;51.240;6.794;2022-11-15T08:00:39;8.07;;;3.57;;
5569;SDS011;2808;51.240;6.794;2022-11-15T08:03:07;7.70;;;3.53;;
5569;SDS011;2808;51.240;6.794;2022-11-15T08:05:36;8.63;;;3.40;;
5569;SDS011;2808;51.240;6.794;2022-11-15T08:08:05;8.70;;;3.30;;
5569;SDS011;2808;51.240;6.794;2022-11-15T08:10:35;7.57;;;3.83;;
5569;SDS011;2808;51.240;6.794;2022-11-15T08:13:06;8.30;;;4.03;;
5569;SDS011;2808;51.240;6.794;2022-11-15T08:15:36;6.63;;;3.80;;
5569;SDS011;2808;51.240;6.794;2022-11-15T08:18:05;4.93;;;3.10;;
5569;SDS011;2808;51.240;6.794;2022-11-15T08:20:35;11.47;;;3.80;;
5569;SDS011;2808;51.240;6.794;2022-11-15T08:23:03;7.03;;;3.50;;
5569;SDS011;2808;51.240;6.794;2022-11-15T08:25:31;6.40;;;3.43;;
5569;SDS011;2808;51.240;6.794;2022-11-15T08:28:04;10.00;;;3.50;;
5569;SDS011;2808;51.240;6.794;2022-11-15T08:30:37;7.00;;;3.37;;
5569;SDS011;2808;51.240;6.794;2022-11-15T08:33:09;6.97;;;3.30;;
5569;SDS011;2808;51.240;6.794;2022-11-15T08:35:37;6.53;;;3.20;;
5569;SDS011;2808;51.240;6.794;2022-11-15T08:38:05;9.73;;;3.80;;
5569;SDS011;2808;51.240;6.794;2022-11-15T08:40:32;6.67;;;3.40;;
5569;SDS011;2808;51.240;6.794;2022-11-15T08:43:03;6.23;;;3.30;;
5569;SDS011;2808;51.240;6.794;2022-11-15T08:45:31;4.80;;;2.70;;
5569;SDS011;2808;51.240;6.794;2022-11-15T08:48:01;7.37;;;2.87;;
5569;SDS011;2808;51.240;6.794;2022-11-15T08:50:29;7.07;;;2.57;;
5569;SDS011;2808;51.240;6.794;2022-11-15T08:52:57;7.50;;;2.97;;
5569;SDS011;2808;51.240;6.794;2022-11-15T08:55:29;7.23;;;2.30;;
5569;SDS011;2808;51.240;6.794;2022-11-15T08:57:57;6.97;;;2.77;;
5569;SDS011;2808;51.240;6.794;2022-11-15T09:00:25;7.37;;;2.60;;
5569;SDS011;2808;51.240;6.794;2022-11-15T09:02:52;6.60;;;3.07;;
5569;SDS011;2808;51.240;6.794;2022-11-15T09:05:21;5.20;;;2.70;;
5569;SDS011;2808;51.240;6.794;2022-11-15T09:07:52;9.63;;;2.03;;
5569;SDS011;2808;51.240;6.794;2022-11-15T09:10:20;8.47;;;2.27;;
5569;SDS011;2808;51.240;6.794;2022-11-15T09:12:48;8.33;;;3.00;;
5569;SDS011;2808;51.240;6.794;2022-11-15T09:15:16;6.47;;;2.73;;
5569;SDS011;2808;51.240;6.794;2022-11-15T09:17:44;5.83;;;2.20;;
5569;SDS011;2808;51.240;6.794;2022-11-15T09:20:12;4.70;;;1.87;;
5569;SDS011;2808;51.240;6.794;2022-11-15T09:22:41;4.10;;;2.13;;
5569;SDS011;2808;51.240;6.794;2022-11-15T09:25:08;4.03;;;1.80;;
5569;SDS011;2808;51.240;6.794;2022-11-15T09:27:36;6.83;;;2.17;;
5569;SDS011;2808;51.240;6.794;2022-11-15T09:30:04;4.27;;;1.80;;
5569;SDS011;2808;51.240;6.794;2022-11-15T09:32:32;7.93;;;2.37;;
5569;SDS011;2808;51.240;6.794;2022-11-15T09:34:59;6.20;;;1.93;;
5569;SDS011;2808;51.240;6.794;2022-11-15T09:37:28;4.30;;;1.70;;
5569;SDS011;2808;51.240;6.794;2022-11-15T09:39:58;5.77;;;2.00;;
5569;SDS011;2808;51.240;6.794;2022-11-15T09:42:30;8.03;;;1.87;;
5569;SDS011;2808;51.240;6.794;2022-11-15T09:45:17;6.23;;;2.13;;
5569;SDS011;2808;51.240;6.794;2022-11-15T09:47:54;8.33;;;1.80;;
5569;SDS011;2808;51.240;6.794;2022-11-15T09:50:46;5.70;;;1.80;;
5569;SDS011;2808;51.240;6.794;2022-11-15T09:53:18;4.47;;;1.50;;
5569;SDS011;2808;51.240;6.794;2022-11-15T09:55:53;9.00;;;2.47;;
5569;SDS011;2808;51.240;6.794;2022-11-15T09:58:38;4.50;;;1.50;;
5569;SDS011;2808;51.240;6.794;2022-11-15T10:01:22;3.33;;;1.20;;
5569;SDS011;2808;51.240;6.794;2022-11-15T10:04:00;4.17;;;1.40;;
5569;SDS011;2808;51.240;6.794;2022-11-15T10:06:27;3.23;;;1.33;;
5569;SDS011;2808;51.240;6.794;2022-11-15T10:08:58;4.97;;;1.50;;
5569;SDS011;2808;51.240;6.794;2022-11-15T10:11:30;3.97;;;1.60;;
5569;SDS011;2808;51.240;6.794;2022-11-15T10:13:59;4.10;;;1.50;;
5569;SDS011;2808;51.240;6.794;2022-11-15T10:19:34;4.20;;;1.77;;
5569;SDS011;2808;51.240;6.794;2022-11-15T10:25:16;11.27;;;1.60;;
5569;SDS011;2808;51.240;6.794;2022-11-15T10:27:53;6.83;;;1.30;;
5569;SDS011;2808;51.240;6.794;2022-11-15T10:30:23;4.23;;;1.40;;
5569;SDS011;2808;51.240;6.794;2022-11-15T10:32:57;6.07;;;1.57;;
5569;SDS011;2808;51.240;6.794;2022-11-15T10:35:28;4.10;;;1.33;;
5569;SDS011;2808;51.240;6.794;2022-11-15T10:38:04;5.63;;;1.40;;
5569;SDS011;2808;51.240;6.794;2022-11-15T10:40:32;7.80;;;1.47;;
5569;SDS011;2808;51.240;6.794;2022-11-15T10:43:05;9.43;;;1.67;;
5569;SDS011;2808;51.240;6.794;2022-11-15T10:45:40;9.20;;;1.57;;
5569;SDS011;2808;51.240;6.794;2022-11-15T10:48:23;4.90;;;1.50;;
5569;SDS011;2808;51.240;6.794;2022-11-15T10:50:51;2.60;;;1.20;;
5569;SDS011;2808;51.240;6.794;2022-11-15T10:53:23;4.83;;;1.47;;
5569;SDS011;2808;51.240;6.794;2022-11-15T10:55:56;5.77;;;1.57;;
5569;SDS011;2808;51.240;6.794;2022-11-15T10:58:30;5.43;;;1.40;;
5569;SDS011;2808;51.240;6.794;2022-11-15T11:01:10;7.57;;;1.30;;
5569;SDS011;2808;51.240;6.794;2022-11-15T11:03:40;3.70;;;1.50;;
5569;SDS011;2808;51.240;6.794;2022-11-15T11:06:10;5.60;;;1.63;;
5569;SDS011;2808;51.240;6.794;2022-11-15T11:08:40;11.10;;;1.60;;
5569;SDS011;2808;51.240;6.794;2022-11-15T11:11:19;5.23;;;1.30;;
5569;SDS011;2808;51.240;6.794;2022-11-15T11:13:48;5.27;;;1.50;;
5569;SDS011;2808;51.240;6.794;2022-11-15T11:16:30;6.40;;;1.37;;
5569;SDS011;2808;51.240;6.794;2022-11-15T11:19:17;9.83;;;1.50;;
5569;SDS011;2808;51.240;6.794;2022-11-15T11:21:58;3.53;;;1.30;;
5569;SDS011;2808;51.240;6.794;2022-11-15T11:24:33;4.73;;;1.37;;
5569;SDS011;2808;51.240;6.794;2022-11-15T11:27:08;5.67;;;1.13;;
5569;SDS011;2808;51.240;6.794;2022-11-15T11:29:51;2.80;;;1.03;;
5569;SDS011;2808;51.240;6.794;2022-11-15T11:32:37;7.63;;;1.10;;
5569;SDS011;2808;51.240;6.794;2022-11-15T11:35:24;4.00;;;1.40;;
5569;SDS011;2808;51.240;6.794;2022-11-15T11:38:02;6.43;;;1.43;;
5569;SDS011;2808;51.240;6.794;2022-11-15T11:40:43;3.73;;;1.47;;
5569;SDS011;2808;51.240;6.794;2022-11-15T11:43:21;11.70;;;1.50;;
5569;SDS011;2808;51.240;6.794;2022-11-15T11:46:01;3.80;;;1.30;;
5569;SDS011;2808;51.240;6.794;2022-11-15T11:48:40;5.30;;;1.30;;
5569;SDS011;2808;51.240;6.794;2022-11-15T11:51:11;6.83;;;1.67;;
5569;SDS011;2808;51.240;6.794;2022-11-15T11:53:45;20.17;;;1.50;;
5569;SDS011;2808;51.240;6.794;2022-11-15T11:56:19;3.33;;;1.33;;
5569;SDS011;2808;51.240;6.794;2022-11-15T11:58:52;5.50;;;1.60;;
5569;SDS011;2808;51.240;6.794;2022-11-15T12:01:26;5.43;;;1.47;;
5569;SDS011;2808;51.240;6.794;2022-11-15T12:03:59;7.40;;;1.37;;
5569;SDS011;2808;51.240;6.794;2022-11-15T12:06:33;7.00;;;1.70;;
5569;SDS011;2808;51.240;6.794;2022-11-15T12:09:07;4.07;;;1.50;;
5569;SDS011;2808;51.240;6.794;2022-11-15T12:11:43;3.97;;;1.10;;
5569;SDS011;2808;51.240;6.794;2022-11-15T12:14:21;8.43;;;1.40;;
5569;SDS011;2808;51.240;6.794;2022-11-15T12:17:00;6.53;;;1.50;;
5569;SDS011;2808;51.240;6.794;2022-11-15T12:19:28;6.90;;;1.97;;
5569;SDS011;2808;51.240;6.794;2022-11-15T12:21:58;6.90;;;1.30;;
5569;SDS011;2808;51.240;6.794;2022-11-15T12:24:32;6.90;;;1.57;;
5569;SDS011;2808;51.240;6.794;2022-11-15T12:27:05;8.70;;;1.80;;
5569;SDS011;2808;51.240;6.794;2022-11-15T12:29:42;4.10;;;1.40;;
5569;SDS011;2808;51.240;6.794;2022-11-15T12:32:17;8.87;;;1.30;;
5569;SDS011;2808;51.240;6.794;2022-11-15T12:34:50;3.97;;;1.17;;
5569;SDS011;2808;51.240;6.794;2022-11-15T12:40:19;7.17;;;1.53;;
5569;SDS011;2808;51.240;6.794;2022-11-15T12:43:01;4.70;;;1.40;;
5569;SDS011;2808;51.240;6.794;2022-11-15T12:45:46;17.63;;;1.50;;
5569;SDS011;2808;51.240;6.794;2022-11-15T12:51:14;6.13;;;1.20;;
5569;SDS011;2808;51.240;6.794;2022-11-15T12:53:41;7.30;;;1.53;;
5569;SDS011;2808;51.240;6.794;2022-11-15T12:56:09;5.70;;;1.47;;
5569;SDS011;2808;51.240;6.794;2022-11-15T12:58:47;10.13;;;2.10;;
5569;SDS011;2808;51.240;6.794;2022-11-15T13:04:28;6.43;;;1.40;;
5569;SDS011;2808;51.240;6.794;2022-11-15T13:06:57;3.60;;;1.30;;
5569;SDS011;2808;51.240;6.794;2022-11-15T13:15:35;5.10;;;1.30;;
5569;SDS011;2808;51.240;6.794;2022-11-15T13:21:16;6.43;;;1.30;;
5569;SDS011;2808;51.240;6.794;2022-11-15T13:24:04;3.37;;;1.30;;
5569;SDS011;2808;51.240;6.794;2022-11-15T13:26:38;7.53;;;1.50;;
5569;SDS011;2808;51.240;6.794;2022-11-15T13:29:15;5.77;;;1.30;;
5569;SDS011;2808;51.240;6.794;2022-11-15T13:31:45;6.60;;;1.23;;
5569;SDS011;2808;51.240;6.794;2022-11-15T13:34:15;6.40;;;1.40;;
5569;SDS011;2808;51.240;6.794;2022-11-15T13:36:59;5.90;;;1.20;;
5569;SDS011;2808;51.240;6.794;2022-11-15T13:39:28;9.73;;;1.73;;
5569;SDS011;2808;51.240;6.794;2022-11-15T13:41:57;5.93;;;1.30;;
5569;SDS011;2808;51.240;6.794;2022-11-15T13:44:25;5.03;;;1.10;;
5569;SDS011;2808;51.240;6.794;2022-11-15T13:47:00;6.20;;;1.40;;
5569;SDS011;2808;51.240;6.794;2022-11-15T13:49:33;4.87;;;1.20;;
5569;SDS011;2808;51.240;6.794;2022-11-15T13:52:09;7.37;;;1.50;;
5569;SDS011;2808;51.240;6.794;2022-11-15T13:54:42;4.77;;;1.50;;
5569;SDS011;2808;51.240;6.794;2022-11-15T13:57:18;11.03;;;1.40;;
5569;SDS011;2808;51.240;6.794;2022-11-15T13:59:49;6.10;;;1.20;;
5569;SDS011;2808;51.240;6.794;2022-11-15T14:02:20;3.60;;;1.23;;
5569;SDS011;2808;51.240;6.794;2022-11-15T14:04:52;4.83;;;1.60;;
5569;SDS011;2808;51.240;6.794;2022-11-15T14:07:24;11.30;;;1.57;;
5569;SDS011;2808;51.240;6.794;2022-11-15T14:09:52;5.70;;;1.70;;
5569;SDS011;2808;51.240;6.794;2022-11-15T14:12:22;5.07;;;1.40;;
5569;SDS011;2808;51.240;6.794;2022-11-15T14:14:52;6.80;;;1.63;;
5569;SDS011;2808;51.240;6.794;2022-11-15T14:17:21;7.43;;;1.70;;
5569;SDS011;2808;51.240;6.794;2022-11-15T14:19:59;5.63;;;1.57;;
5569;SDS011;2808;51.240;6.794;2022-11-15T14:22:31;4.50;;;1.90;;
5569;SDS011;2808;51.240;6.794;2022-11-15T14:25:07;9.63;;;1.73;;
5569;SDS011;2808;51.240;6.794;2022-11-15T14:27:43;8.90;;;1.60;;
5569;SDS011;2808;51.240;6.794;2022-11-15T14:30:31;5.00;;;1.67;;
5569;SDS011;2808;51.240;6.794;2022-11-15T14:32:58;6.90;;;1.90;;
5569;SDS011;2808;51.240;6.794;2022-11-15T14:35:26;5.07;;;1.77;;
5569;SDS011;2808;51.240;6.794;2022-11-15T14:37:55;4.80;;;2.00;;
5569;SDS011;2808;51.240;6.794;2022-11-15T14:40:23;5.70;;;2.00;;
5569;SDS011;2808;51.240;6.794;2022-11-15T14:42:50;4.80;;;2.00;;
5569;SDS011;2808;51.240;6.794;2022-11-15T14:45:18;6.20;;;2.30;;
5569;SDS011;2808;51.240;6.794;2022-11-15T14:47:46;5.20;;;2.00;;
5569;SDS011;2808;51.240;6.794;2022-11-15T14:50:15;9.13;;;2.43;;
5569;SDS011;2808;51.240;6.794;2022-11-15T14:52:44;5.20;;;2.30;;
5569;SDS011;2808;51.240;6.794;2022-11-15T14:55:16;3.70;;;1.97;;
5569;SDS011;2808;51.240;6.794;2022-11-15T14:57:46;7.80;;;2.40;;
5569;SDS011;2808;51.240;6.794;2022-11-15T15:00:15;8.83;;;2.73;;
5569;SDS011;2808;51.240;6.794;2022-11-15T15:02:43;6.03;;;1.90;;
5569;SDS011;2808;51.240;6.794;2022-11-15T15:05:13;7.83;;;2.43;;
5569;SDS011;2808;51.240;6.794;2022-11-15T15:07:43;11.13;;;2.17;;
5569;SDS011;2808;51.240;6.794;2022-11-15T15:10:11;9.50;;;2.30;;
5569;SDS011;2808;51.240;6.794;2022-11-15T15:12:40;5.60;;;2.00;;
5569;SDS011;2808;51.240;6.794;2022-11-15T15:15:11;5.00;;;2.07;;
5569;SDS011;2808;51.240;6.794;2022-11-15T15:17:40;7.87;;;2.73;;
5569;SDS011;2808;51.240;6.794;2022-11-15T15:20:08;6.37;;;2.40;;
5569;SDS011;2808;51.240;6.794;2022-11-15T15:22:36;11.20;;;2.90;;
5569;SDS011;2808;51.240;6.794;2022-11-15T15:25:10;6.40;;;2.23;;
5569;SDS011;2808;51.240;6.794;2022-11-15T15:27:51;7.50;;;1.97;;
5569;SDS011;2808;51.240;6.794;2022-11-15T15:30:19;6.20;;;2.30;;
5569;SDS011;2808;51.240;6.794;2022-11-15T15:32:47;9.20;;;2.10;;
5569;SDS011;2808;51.240;6.794;2022-11-15T15:35:15;4.70;;;2.27;;
5569;SDS011;2808;51.240;6.794;2022-11-15T15:37:44;9.13;;;3.10;;
5569;SDS011;2808;51.240;6.794;2022-11-15T15:40:13;7.77;;;2.10;;
5569;SDS011;2808;51.240;6.794;2022-11-15T15:42:43;5.83;;;2.10;;
5569;SDS011;2808;51.240;6.794;2022-11-15T15:45:20;4.37;;;2.00;;
5569;SDS011;2808;51.240;6.794;2022-11-15T15:47:55;4.93;;;1.83;;
5569;SDS011;2808;51.240;6.794;2022-11-15T15:50:32;7.90;;;2.50;;
5569;SDS011;2808;51.240;6.794;2022-11-15T15:53:02;3.97;;;1.80;;
5569;SDS011;2808;51.240;6.794;2022-11-15T15:55:30;7.67;;;2.10;;
5569;SDS011;2808;51.240;6.794;2022-11-15T15:57:58;6.50;;;2.27;;
5569;SDS011;2808;51.240;6.794;2022-11-15T16:00:26;8.13;;;2.70;;
5569;SDS011;2808;51.240;6.794;2022-11-15T16:02:54;8.67;;;2.20;;
5569;SDS011;2808;51.240;6.794;2022-11-15T16:05:23;7.53;;;2.37;;
5569;SDS011;2808;51.240;6.794;2022-11-15T16:07:51;4.30;;;1.73;;